Username
Password
 
Info Terbaru :
  

Jackpot hanya dapat di beli di awal sebelum periode tersebut berjalan dan jika berhasil maka anda dapat melihat di sisi kiri bawah atau kiri atas akan terdapat notifikasi bahwa jackpot anda berhasil di beli.

Jika anda membeli jackpot di tengah permainan maka pembelian jackpot akan berlaku untuk periode selanjutnya.

Jackpot Winner Ceme

Jackpot dilihat dari gabungan kartu pemain dengan kartu bandar. Bandar harus membeli jackpot sebanyak jumlah player yang sedang duduk. Sebagai contoh bila terdapat 3 pemain duduk bermain, dan bandar memutuskan untuk membeli jackpot Rp 1.000, maka pada periode tersebut bandar akan membeli jackpot sebanyak 3xRp1.000 = Rp3.000.

Jackpot bukanlah suatu keharusan untuk dibeli, namun kami memberikan suatu fitur tambahan untuk member tercinta dari www.mausixpack.website.

Terdapat tiga pilihan harga jackpot yang bisa anda beli yaitu :100,500 dan 1000 rupiah.

Hadiah dari Multi jackpot system www.mausixpack.website

  1. Murni Kecil x 50 harga jackpot yang anda beli.
      (contoH:anda membeli 1000 maka:1000 X 50 = 50.000)
  2. Murni Besar x 50 harga jackpot yang anda beli
      (contoH:anda membeli 1000 maka:1000 X 50 = 50.000)
  3. BALAK x 200 harga jackpot yang anda beli
      (contoH:anda membeli 1000 maka:1000 X 200 = 200.000)
  4. ENAM DEWA x 6666 harga jackpot yang anda beli
      (contoH:anda membeli 1000 maka:1000 X 6666 = 6.666.000)

Demikian adalah penjelasan dari Multi Jackpot www.mausixpack.website terima kasih dan selamat bermain salam hoki dari kami


Jackpot Winner

TOP ENAM DEWA
No. Tanggal Nama Price Win
1 18/01 04:32 AMELLIZA murni enam 6,666,000
2 18/01 04:32 MUXSYA797 murni enam 6,666,000
3 18/01 04:30 NB86539 murni enam 6,666,000
4 18/01 04:30 A4NN889 murni enam 3,333,000
5 18/01 03:40 CHIKAHOKI murni enam 6,666,000
TOP BALAK
No. Tanggal Nama Price Win
1 18/01 04:40 DAHLANDA balak 200,000
2 18/01 04:40 B63D8D94 balak 200,000
3 18/01 04:40 BENOWO10 balak 20,000
4 18/01 04:40 DEVITT balak 100,000
5 18/01 04:40 OVI1BAGOESX balak 200,000
LATEST JACKPOT
No. Tanggal Nama Price Win
1 18/01 04:41 B0SSS murni kecil 50,000
2 18/01 04:41 TOMY27 murni kecil 25,000
3 18/01 04:41 SCOOPY0919 murni kecil 50,000
4 18/01 04:41 LUCKYGOD89 murni besar 50,000
5 18/01 04:40 MPOY2527 murni kecil 50,000
6 18/01 04:40 SPRINGTIME murni kecil 5,000
7 18/01 04:40 DOSKY81 murni besar 25,000
8 18/01 04:40 DAHLANDA murni kecil 50,000
9 18/01 04:40 SAH murni kecil 50,000
10 18/01 04:40 DAHLANDA murni kecil 50,000
11 18/01 04:40 DAHLANDA balak 200,000
12 18/01 04:40 B63D8D94 balak 200,000
13 18/01 04:40 RIZQA murni besar 25,000
14 18/01 04:40 DWBT0722 murni besar 25,000
15 18/01 04:40 RIZQA murni besar 25,000
16 18/01 04:40 SNI75371 murni besar 5,000
17 18/01 04:40 PN4DACI123 murni kecil 25,000
18 18/01 04:40 ALONDO murni kecil 50,000
19 18/01 04:40 BENOWO10 murni kecil 5,000
20 18/01 04:40 TALITA2401 murni kecil 50,000
21 18/01 04:40 BENOWO10 balak 20,000
22 18/01 04:40 DEVITT balak 100,000
23 18/01 04:40 BUMI78 murni kecil 50,000
24 18/01 04:40 GIRTU23 murni kecil 50,000
25 18/01 04:40 RAFFLY murni kecil 50,000
26 18/01 04:40 DAHLANDA murni besar 50,000
27 18/01 04:40 OVI1BAGOESX balak 200,000
28 18/01 04:40 EYO66 murni besar 50,000
29 18/01 04:39 CLUBIJAN murni besar 50,000
30 18/01 04:39 ABAHSANJAY murni besar 25,000
31 18/01 04:39 CLUBIJAN murni besar 50,000
32 18/01 04:39 MANCAYYYYY murni besar 50,000
33 18/01 04:39 INDOPLAY86 murni kecil 5,000
34 18/01 04:39 KART66 murni besar 50,000
35 18/01 04:39 WAN1DUEL balak 200,000
36 18/01 04:39 RIFALS balak 200,000
37 18/01 04:39 RIZQA murni kecil 25,000
38 18/01 04:39 AII1207 murni kecil 5,000
39 18/01 04:39 BIO78 balak 100,000
40 18/01 04:39 RENOVEN murni besar 50,000
41 18/01 04:39 J5D7FMY85L murni besar 50,000
42 18/01 04:38 CIXA50 murni besar 50,000
43 18/01 04:38 OTTO123 murni besar 5,000
44 18/01 04:38 PANCA81 balak 200,000
45 18/01 04:38 IPATAN murni kecil 50,000
46 18/01 04:38 K4R3DOX666 murni kecil 25,000
47 18/01 04:38 DAHLANDA balak 200,000
48 18/01 04:38 BRATBUT99 murni kecil 50,000
49 18/01 04:38 TEMPE12 murni kecil 25,000
50 18/01 04:38 ISKANDARR9 balak 20,000


Situs Poker Online
Dewapoker.com Hadir untuk semua pecinta permainan kartu poker online yang khususnya berada di asia. Dengan system teknology baru dan server kecepatan tinggi akan membuat permainan poker anda lebih seru dan menarik bersama teman2x anda maupun saingan anda. Cukup lakukan login dan langsung bermain tanpa download. Dewapoker.com dengan encrypsi server yang tinggi akan menjamin keamanan data para member.
Terms & Conditions Link Alternatif Video Dewapoker
© Copyright 2019 Dewa Poker. All right reserved.
Dewa.FM